sensor_id;sensor_type;location;lat;lon;timestamp;temperature;humidity
10968;DHT22;5536;49.602;10.980;2023-03-01T00:01:08;-0.90;99.90
10968;DHT22;5536;49.602;10.980;2023-03-01T00:03:36;-0.90;99.90
10968;DHT22;5536;49.602;10.980;2023-03-01T00:06:05;-1.00;99.90
10968;DHT22;5536;49.602;10.980;2023-03-01T00:08:33;-1.00;99.90
10968;DHT22;5536;49.602;10.980;2023-03-01T00:11:02;-1.00;99.90
10968;DHT22;5536;49.602;10.980;2023-03-01T00:13:29;-1.00;99.90
10968;DHT22;5536;49.602;10.980;2023-03-01T00:15:56;-1.00;99.90
10968;DHT22;5536;49.602;10.980;2023-03-01T00:18:23;-1.00;99.90
10968;DHT22;5536;49.602;10.980;2023-03-01T00:20:50;-1.00;99.90
10968;DHT22;5536;49.602;10.980;2023-03-01T00:23:19;-1.00;99.90
10968;DHT22;5536;49.602;10.980;2023-03-01T00:25:46;-0.90;99.90
10968;DHT22;5536;49.602;10.980;2023-03-01T00:28:13;-1.00;99.90
10968;DHT22;5536;49.602;10.980;2023-03-01T00:30:40;-1.00;99.90
10968;DHT22;5536;49.602;10.980;2023-03-01T00:33:07;-1.00;99.90
10968;DHT22;5536;49.602;10.980;2023-03-01T00:35:34;-0.90;99.90
10968;DHT22;5536;49.602;10.980;2023-03-01T00:38:02;-0.90;99.90
10968;DHT22;5536;49.602;10.980;2023-03-01T00:40:32;-0.80;99.90
10968;DHT22;5536;49.602;10.980;2023-03-01T00:42:59;-0.80;99.90
10968;DHT22;5536;49.602;10.980;2023-03-01T00:45:27;-0.90;99.90
10968;DHT22;5536;49.602;10.980;2023-03-01T00:47:54;-0.90;99.90
10968;DHT22;5536;49.602;10.980;2023-03-01T00:50:21;-0.90;99.90
10968;DHT22;5536;49.602;10.980;2023-03-01T00:52:52;-1.00;99.90
10968;DHT22;5536;49.602;10.980;2023-03-01T00:55:19;-1.00;99.90
10968;DHT22;5536;49.602;10.980;2023-03-01T00:57:47;-1.00;99.90
10968;DHT22;5536;49.602;10.980;2023-03-01T01:00:15;-1.10;99.90
10968;DHT22;5536;49.602;10.980;2023-03-01T01:02:42;-1.10;99.90
10968;DHT22;5536;49.602;10.980;2023-03-01T01:05:09;-1.10;99.90
10968;DHT22;5536;49.602;10.980;2023-03-01T01:07:36;-1.20;99.90
10968;DHT22;5536;49.602;10.980;2023-03-01T01:10:04;-1.20;99.90
10968;DHT22;5536;49.602;10.980;2023-03-01T01:12:32;-1.30;99.90
10968;DHT22;5536;49.602;10.980;2023-03-01T01:15:00;-1.20;99.90
10968;DHT22;5536;49.602;10.980;2023-03-01T01:17:27;-1.20;99.90
10968;DHT22;5536;49.602;10.980;2023-03-01T01:19:54;-1.30;99.90
10968;DHT22;5536;49.602;10.980;2023-03-01T01:22:21;-1.30;99.90
10968;DHT22;5536;49.602;10.980;2023-03-01T01:24:48;-1.30;99.90
10968;DHT22;5536;49.602;10.980;2023-03-01T01:27:15;-1.30;99.90
10968;DHT22;5536;49.602;10.980;2023-03-01T01:29:42;-1.30;99.90
10968;DHT22;5536;49.602;10.980;2023-03-01T01:32:10;-1.40;99.90
10968;DHT22;5536;49.602;10.980;2023-03-01T01:34:37;-1.40;99.90
10968;DHT22;5536;49.602;10.980;2023-03-01T01:37:05;-1.40;99.90
10968;DHT22;5536;49.602;10.980;2023-03-01T01:39:33;-1.40;99.90
10968;DHT22;5536;49.602;10.980;2023-03-01T01:42:00;-1.40;99.90
10968;DHT22;5536;49.602;10.980;2023-03-01T01:44:29;-1.50;99.90
10968;DHT22;5536;49.602;10.980;2023-03-01T01:46:58;-1.50;99.90
10968;DHT22;5536;49.602;10.980;2023-03-01T01:49:32;-1.50;99.90
10968;DHT22;5536;49.602;10.980;2023-03-01T01:52:09;-1.50;99.90
10968;DHT22;5536;49.602;10.980;2023-03-01T01:54:42;-1.50;99.90
10968;DHT22;5536;49.602;10.980;2023-03-01T01:57:14;-1.50;99.90
10968;DHT22;5536;49.602;10.980;2023-03-01T01:59:44;-1.50;99.90
10968;DHT22;5536;49.602;10.980;2023-03-01T02:02:13;-1.50;99.90
10968;DHT22;5536;49.602;10.980;2023-03-01T02:04:42;-1.40;99.90
10968;DHT22;5536;49.602;10.980;2023-03-01T02:07:14;-1.50;99.90
10968;DHT22;5536;49.602;10.980;2023-03-01T02:09:45;-1.40;99.90
10968;DHT22;5536;49.602;10.980;2023-03-01T02:12:13;-1.40;99.90
10968;DHT22;5536;49.602;10.980;2023-03-01T02:14:41;-1.40;99.90
10968;DHT22;5536;49.602;10.980;2023-03-01T02:17:08;-1.40;99.90
10968;DHT22;5536;49.602;10.980;2023-03-01T02:19:47;-1.40;99.90
10968;DHT22;5536;49.602;10.980;2023-03-01T02:22:22;-1.40;99.90
10968;DHT22;5536;49.602;10.980;2023-03-01T02:24:59;-1.40;99.90
10968;DHT22;5536;49.602;10.980;2023-03-01T02:27:35;-1.40;99.90
10968;DHT22;5536;49.602;10.980;2023-03-01T02:30:06;-1.40;99.90
10968;DHT22;5536;49.602;10.980;2023-03-01T02:32:34;-1.40;99.90
10968;DHT22;5536;49.602;10.980;2023-03-01T02:35:00;-1.30;99.90
10968;DHT22;5536;49.602;10.980;2023-03-01T02:37:27;-1.30;99.90
10968;DHT22;5536;49.602;10.980;2023-03-01T02:40:15;-1.40;99.90
10968;DHT22;5536;49.602;10.980;2023-03-01T02:42:47;-1.40;99.90
10968;DHT22;5536;49.602;10.980;2023-03-01T02:45:16;-1.40;99.90
10968;DHT22;5536;49.602;10.980;2023-03-01T02:47:43;-1.40;99.90
10968;DHT22;5536;49.602;10.980;2023-03-01T02:50:19;-1.40;99.90
10968;DHT22;5536;49.602;10.980;2023-03-01T02:52:55;-1.40;99.90
10968;DHT22;5536;49.602;10.980;2023-03-01T02:55:24;-1.50;99.90
10968;DHT22;5536;49.602;10.980;2023-03-01T02:57:51;-1.50;99.90
10968;DHT22;5536;49.602;10.980;2023-03-01T03:00:20;-1.50;99.90
10968;DHT22;5536;49.602;10.980;2023-03-01T03:02:49;-1.60;99.90
10968;DHT22;5536;49.602;10.980;2023-03-01T03:05:19;-1.60;99.90
10968;DHT22;5536;49.602;10.980;2023-03-01T03:07:47;-1.60;99.90
10968;DHT22;5536;49.602;10.980;2023-03-01T03:10:18;-1.60;99.90
10968;DHT22;5536;49.602;10.980;2023-03-01T03:12:51;-1.60;99.90
10968;DHT22;5536;49.602;10.980;2023-03-01T03:15:19;-1.60;99.90
10968;DHT22;5536;49.602;10.980;2023-03-01T03:17:46;-1.70;99.90
10968;DHT22;5536;49.602;10.980;2023-03-01T03:20:16;-1.70;99.90
10968;DHT22;5536;49.602;10.980;2023-03-01T03:22:45;-1.70;99.90
10968;DHT22;5536;49.602;10.980;2023-03-01T03:25:12;-1.70;99.90
10968;DHT22;5536;49.602;10.980;2023-03-01T03:27:40;-1.70;99.90
10968;DHT22;5536;49.602;10.980;2023-03-01T03:30:12;-1.70;99.90
10968;DHT22;5536;49.602;10.980;2023-03-01T03:32:40;-1.70;99.90
10968;DHT22;5536;49.602;10.980;2023-03-01T03:35:08;-1.80;99.90
10968;DHT22;5536;49.602;10.980;2023-03-01T03:37:36;-1.80;99.90
10968;DHT22;5536;49.602;10.980;2023-03-01T03:40:20;-1.80;99.90
10968;DHT22;5536;49.602;10.980;2023-03-01T03:42:47;-1.80;99.90
10968;DHT22;5536;49.602;10.980;2023-03-01T03:45:16;-1.80;99.90
10968;DHT22;5536;49.602;10.980;2023-03-01T03:47:43;-1.80;99.90
10968;DHT22;5536;49.602;10.980;2023-03-01T03:50:11;-1.80;99.90
10968;DHT22;5536;49.602;10.980;2023-03-01T03:52:39;-1.80;99.90
10968;DHT22;5536;49.602;10.980;2023-03-01T03:55:08;-1.90;99.90
10968;DHT22;5536;49.602;10.980;2023-03-01T03:57:36;-1.90;99.90
10968;DHT22;5536;49.602;10.980;2023-03-01T04:00:04;-1.90;99.90
10968;DHT22;5536;49.602;10.980;2023-03-01T04:02:39;-1.90;99.90
10968;DHT22;5536;49.602;10.980;2023-03-01T04:05:07;-1.90;99.90
10968;DHT22;5536;49.602;10.980;2023-03-01T04:07:35;-2.00;99.90
10968;DHT22;5536;49.602;10.980;2023-03-01T04:10:02;-2.00;99.90
10968;DHT22;5536;49.602;10.980;2023-03-01T04:12:29;-2.00;99.90
10968;DHT22;5536;49.602;10.980;2023-03-01T04:14:59;-2.00;99.90
10968;DHT22;5536;49.602;10.980;2023-03-01T04:17:26;-2.00;99.90
10968;DHT22;5536;49.602;10.980;2023-03-01T04:19:54;-2.00;99.90
10968;DHT22;5536;49.602;10.980;2023-03-01T04:22:21;-2.00;99.90
10968;DHT22;5536;49.602;10.980;2023-03-01T04:24:48;-2.00;99.90
10968;DHT22;5536;49.602;10.980;2023-03-01T04:27:15;-2.00;99.90
10968;DHT22;5536;49.602;10.980;2023-03-01T04:29:42;-2.00;99.90
10968;DHT22;5536;49.602;10.980;2023-03-01T04:32:09;-2.00;99.90
10968;DHT22;5536;49.602;10.980;2023-03-01T04:34:36;-2.00;99.90
10968;DHT22;5536;49.602;10.980;2023-03-01T04:37:04;-2.00;99.90
10968;DHT22;5536;49.602;10.980;2023-03-01T04:39:31;-1.90;99.90
10968;DHT22;5536;49.602;10.980;2023-03-01T04:41:58;-1.90;99.90
10968;DHT22;5536;49.602;10.980;2023-03-01T04:44:25;-1.90;99.90
10968;DHT22;5536;49.602;10.980;2023-03-01T04:46:52;-1.90;99.90
10968;DHT22;5536;49.602;10.980;2023-03-01T04:49:19;-1.90;99.90
10968;DHT22;5536;49.602;10.980;2023-03-01T04:51:46;-1.90;99.90
10968;DHT22;5536;49.602;10.980;2023-03-01T04:54:14;-1.90;99.90
10968;DHT22;5536;49.602;10.980;2023-03-01T04:56:41;-2.00;99.90
10968;DHT22;5536;49.602;10.980;2023-03-01T04:59:08;-1.90;99.90
10968;DHT22;5536;49.602;10.980;2023-03-01T05:01:38;-1.90;99.90
10968;DHT22;5536;49.602;10.980;2023-03-01T05:04:08;-1.90;99.90
10968;DHT22;5536;49.602;10.980;2023-03-01T05:06:38;-1.90;99.90
10968;DHT22;5536;49.602;10.980;2023-03-01T05:09:06;-2.00;99.90
10968;DHT22;5536;49.602;10.980;2023-03-01T05:11:34;-1.90;99.90
10968;DHT22;5536;49.602;10.980;2023-03-01T05:14:02;-2.00;99.90
10968;DHT22;5536;49.602;10.980;2023-03-01T05:16:29;-2.00;99.90
10968;DHT22;5536;49.602;10.980;2023-03-01T05:18:58;-2.00;99.90
10968;DHT22;5536;49.602;10.980;2023-03-01T05:21:25;-2.00;99.90
10968;DHT22;5536;49.602;10.980;2023-03-01T05:23:52;-2.00;99.90
10968;DHT22;5536;49.602;10.980;2023-03-01T05:26:20;-2.00;99.90
10968;DHT22;5536;49.602;10.980;2023-03-01T05:28:54;-2.10;99.90
10968;DHT22;5536;49.602;10.980;2023-03-01T05:31:24;-2.10;99.90
10968;DHT22;5536;49.602;10.980;2023-03-01T05:33:50;-2.10;99.90
10968;DHT22;5536;49.602;10.980;2023-03-01T05:36:18;-2.10;99.90
10968;DHT22;5536;49.602;10.980;2023-03-01T05:38:45;-2.10;99.90
10968;DHT22;5536;49.602;10.980;2023-03-01T05:41:14;-2.10;99.90
10968;DHT22;5536;49.602;10.980;2023-03-01T05:43:42;-2.10;99.90
10968;DHT22;5536;49.602;10.980;2023-03-01T05:46:11;-2.10;99.90
10968;DHT22;5536;49.602;10.980;2023-03-01T05:48:40;-2.20;99.90
10968;DHT22;5536;49.602;10.980;2023-03-01T05:51:07;-2.20;99.90
10968;DHT22;5536;49.602;10.980;2023-03-01T05:53:34;-2.20;99.90
10968;DHT22;5536;49.602;10.980;2023-03-01T05:56:03;-2.20;99.90
10968;DHT22;5536;49.602;10.980;2023-03-01T05:58:30;-2.20;99.90
10968;DHT22;5536;49.602;10.980;2023-03-01T06:00:57;-2.20;99.90
10968;DHT22;5536;49.602;10.980;2023-03-01T06:03:25;-2.20;99.90
10968;DHT22;5536;49.602;10.980;2023-03-01T06:05:55;-2.20;99.90
10968;DHT22;5536;49.602;10.980;2023-03-01T06:08:22;-2.30;99.90
10968;DHT22;5536;49.602;10.980;2023-03-01T06:10:52;-2.20;99.90
10968;DHT22;5536;49.602;10.980;2023-03-01T06:13:19;-2.30;99.90
10968;DHT22;5536;49.602;10.980;2023-03-01T06:15:46;-2.30;99.90
10968;DHT22;5536;49.602;10.980;2023-03-01T06:18:12;-2.30;99.90
10968;DHT22;5536;49.602;10.980;2023-03-01T06:20:41;-2.30;99.90
10968;DHT22;5536;49.602;10.980;2023-03-01T06:23:08;-2.30;99.90
10968;DHT22;5536;49.602;10.980;2023-03-01T06:25:34;-2.30;99.90
10968;DHT22;5536;49.602;10.980;2023-03-01T06:28:01;-2.30;99.90
10968;DHT22;5536;49.602;10.980;2023-03-01T06:30:30;-2.30;99.90
10968;DHT22;5536;49.602;10.980;2023-03-01T06:32:57;-2.20;99.90
10968;DHT22;5536;49.602;10.980;2023-03-01T06:35:27;-2.20;99.90
10968;DHT22;5536;49.602;10.980;2023-03-01T06:37:57;-2.20;99.90
10968;DHT22;5536;49.602;10.980;2023-03-01T06:40:25;-2.20;99.90
10968;DHT22;5536;49.602;10.980;2023-03-01T06:42:52;-2.10;99.90
10968;DHT22;5536;49.602;10.980;2023-03-01T06:45:19;-2.10;99.90
10968;DHT22;5536;49.602;10.980;2023-03-01T06:47:47;-2.00;99.90
10968;DHT22;5536;49.602;10.980;2023-03-01T06:50:15;-2.00;99.90
10968;DHT22;5536;49.602;10.980;2023-03-01T06:52:42;-2.00;99.90
10968;DHT22;5536;49.602;10.980;2023-03-01T06:55:11;-1.90;99.90
10968;DHT22;5536;49.602;10.980;2023-03-01T06:57:38;-1.80;99.90
10968;DHT22;5536;49.602;10.980;2023-03-01T07:00:06;-1.80;99.90
10968;DHT22;5536;49.602;10.980;2023-03-01T07:02:33;-1.70;99.90
10968;DHT22;5536;49.602;10.980;2023-03-01T07:05:00;-1.70;99.90
10968;DHT22;5536;49.602;10.980;2023-03-01T07:07:27;-1.60;99.90
10968;DHT22;5536;49.602;10.980;2023-03-01T07:09:54;-1.50;99.90
10968;DHT22;5536;49.602;10.980;2023-03-01T07:12:22;-1.40;99.90
10968;DHT22;5536;49.602;10.980;2023-03-01T07:14:49;-1.30;99.90
10968;DHT22;5536;49.602;10.980;2023-03-01T07:17:16;-1.20;99.90
10968;DHT22;5536;49.602;10.980;2023-03-01T07:19:44;-1.20;99.90
10968;DHT22;5536;49.602;10.980;2023-03-01T07:22:11;-1.10;99.90
10968;DHT22;5536;49.602;10.980;2023-03-01T07:24:37;-1.10;99.90
10968;DHT22;5536;49.602;10.980;2023-03-01T07:27:04;-1.00;99.90
10968;DHT22;5536;49.602;10.980;2023-03-01T07:29:33;-0.90;99.90
10968;DHT22;5536;49.602;10.980;2023-03-01T07:32:02;-0.90;99.90
10968;DHT22;5536;49.602;10.980;2023-03-01T07:34:29;-0.90;99.90
10968;DHT22;5536;49.602;10.980;2023-03-01T07:36:56;-0.70;99.90
10968;DHT22;5536;49.602;10.980;2023-03-01T07:39:30;-0.70;99.90
10968;DHT22;5536;49.602;10.980;2023-03-01T07:41:57;-0.60;99.90
10968;DHT22;5536;49.602;10.980;2023-03-01T07:44:24;-0.50;99.90
10968;DHT22;5536;49.602;10.980;2023-03-01T07:46:53;-0.40;99.90
10968;DHT22;5536;49.602;10.980;2023-03-01T07:49:22;-0.40;99.90
10968;DHT22;5536;49.602;10.980;2023-03-01T07:51:49;-0.30;99.90
10968;DHT22;5536;49.602;10.980;2023-03-01T07:54:16;-0.20;99.90
10968;DHT22;5536;49.602;10.980;2023-03-01T07:56:43;-0.20;99.90
10968;DHT22;5536;49.602;10.980;2023-03-01T07:59:10;-0.10;99.90
10968;DHT22;5536;49.602;10.980;2023-03-01T08:01:37;0.00;99.90
10968;DHT22;5536;49.602;10.980;2023-03-01T08:04:07;0.20;99.90
10968;DHT22;5536;49.602;10.980;2023-03-01T08:06:35;0.20;99.90
10968;DHT22;5536;49.602;10.980;2023-03-01T08:09:03;0.30;99.90
10968;DHT22;5536;49.602;10.980;2023-03-01T08:11:30;0.30;99.90
10968;DHT22;5536;49.602;10.980;2023-03-01T08:13:57;0.40;99.90
10968;DHT22;5536;49.602;10.980;2023-03-01T08:16:24;0.50;99.90
10968;DHT22;5536;49.602;10.980;2023-03-01T08:18:51;0.60;99.90
10968;DHT22;5536;49.602;10.980;2023-03-01T08:21:19;0.60;99.90
10968;DHT22;5536;49.602;10.980;2023-03-01T08:23:46;0.60;99.90
10968;DHT22;5536;49.602;10.980;2023-03-01T08:26:15;0.70;99.90
10968;DHT22;5536;49.602;10.980;2023-03-01T08:28:44;0.70;99.90
10968;DHT22;5536;49.602;10.980;2023-03-01T08:31:16;0.80;99.90
10968;DHT22;5536;49.602;10.980;2023-03-01T08:33:44;0.90;99.90
10968;DHT22;5536;49.602;10.980;2023-03-01T08:36:16;1.00;99.90
10968;DHT22;5536;49.602;10.980;2023-03-01T08:38:45;1.10;99.90
10968;DHT22;5536;49.602;10.980;2023-03-01T08:41:12;1.20;99.90
10968;DHT22;5536;49.602;10.980;2023-03-01T08:43:39;1.30;99.90
10968;DHT22;5536;49.602;10.980;2023-03-01T08:46:07;1.40;99.90
10968;DHT22;5536;49.602;10.980;2023-03-01T08:48:35;1.60;99.90
10968;DHT22;5536;49.602;10.980;2023-03-01T08:51:10;1.80;99.90
10968;DHT22;5536;49.602;10.980;2023-03-01T08:53:37;2.00;99.90
10968;DHT22;5536;49.602;10.980;2023-03-01T08:56:06;2.10;99.90
10968;DHT22;5536;49.602;10.980;2023-03-01T08:58:34;2.20;99.90
10968;DHT22;5536;49.602;10.980;2023-03-01T09:01:06;2.20;99.90
10968;DHT22;5536;49.602;10.980;2023-03-01T09:03:33;2.30;99.90
10968;DHT22;5536;49.602;10.980;2023-03-01T09:06:01;2.30;99.90
10968;DHT22;5536;49.602;10.980;2023-03-01T09:08:28;2.50;99.90
10968;DHT22;5536;49.602;10.980;2023-03-01T09:10:55;2.60;99.90
10968;DHT22;5536;49.602;10.980;2023-03-01T09:13:24;2.70;99.90
10968;DHT22;5536;49.602;10.980;2023-03-01T09:15:52;2.80;99.90
10968;DHT22;5536;49.602;10.980;2023-03-01T09:18:19;2.90;99.90
10968;DHT22;5536;49.602;10.980;2023-03-01T09:20:46;3.00;99.90
10968;DHT22;5536;49.602;10.980;2023-03-01T09:23:13;3.00;99.90
10968;DHT22;5536;49.602;10.980;2023-03-01T09:25:41;3.10;99.90
10968;DHT22;5536;49.602;10.980;2023-03-01T09:28:08;3.20;99.90
10968;DHT22;5536;49.602;10.980;2023-03-01T09:30:38;3.30;99.90
10968;DHT22;5536;49.602;10.980;2023-03-01T09:33:04;3.20;99.90
10968;DHT22;5536;49.602;10.980;2023-03-01T09:35:32;3.20;99.90
10968;DHT22;5536;49.602;10.980;2023-03-01T09:37:59;3.40;99.90
10968;DHT22;5536;49.602;10.980;2023-03-01T09:40:27;3.40;99.90
10968;DHT22;5536;49.602;10.980;2023-03-01T09:43:01;3.60;99.90
10968;DHT22;5536;49.602;10.980;2023-03-01T09:45:34;3.60;99.90
10968;DHT22;5536;49.602;10.980;2023-03-01T09:48:04;3.70;99.90
10968;DHT22;5536;49.602;10.980;2023-03-01T09:50:35;3.80;99.90
10968;DHT22;5536;49.602;10.980;2023-03-01T09:53:07;3.90;99.90
10968;DHT22;5536;49.602;10.980;2023-03-01T09:55:54;3.90;99.90
10968;DHT22;5536;49.602;10.980;2023-03-01T09:58:44;4.00;99.90
10968;DHT22;5536;49.602;10.980;2023-03-01T10:01:28;4.10;99.90
10968;DHT22;5536;49.602;10.980;2023-03-01T10:04:26;4.20;99.90
10968;DHT22;5536;49.602;10.980;2023-03-01T10:07:02;4.30;99.90
10968;DHT22;5536;49.602;10.980;2023-03-01T10:09:34;4.40;99.90
10968;DHT22;5536;49.602;10.980;2023-03-01T10:12:09;4.60;99.90
10968;DHT22;5536;49.602;10.980;2023-03-01T10:14:39;4.80;99.90
10968;DHT22;5536;49.602;10.980;2023-03-01T10:17:12;4.90;99.90
10968;DHT22;5536;49.602;10.980;2023-03-01T10:19:46;5.10;99.90
10968;DHT22;5536;49.602;10.980;2023-03-01T10:22:15;5.20;99.90
10968;DHT22;5536;49.602;10.980;2023-03-01T10:24:43;5.20;99.90
10968;DHT22;5536;49.602;10.980;2023-03-01T10:27:17;5.20;99.90
10968;DHT22;5536;49.602;10.980;2023-03-01T10:29:50;5.30;99.90
10968;DHT22;5536;49.602;10.980;2023-03-01T10:32:21;5.50;99.90
10968;DHT22;5536;49.602;10.980;2023-03-01T10:34:51;5.60;99.90
10968;DHT22;5536;49.602;10.980;2023-03-01T10:37:20;5.70;99.90
10968;DHT22;5536;49.602;10.980;2023-03-01T10:39:57;5.70;99.90
10968;DHT22;5536;49.602;10.980;2023-03-01T10:42:30;5.90;99.90
10968;DHT22;5536;49.602;10.980;2023-03-01T10:44:58;5.90;99.90
10968;DHT22;5536;49.602;10.980;2023-03-01T10:47:27;5.90;99.90
10968;DHT22;5536;49.602;10.980;2023-03-01T10:50:01;6.00;99.90
10968;DHT22;5536;49.602;10.980;2023-03-01T10:52:32;6.10;99.90
10968;DHT22;5536;49.602;10.980;2023-03-01T10:55:02;6.20;99.90
10968;DHT22;5536;49.602;10.980;2023-03-01T10:57:35;6.40;99.90
10968;DHT22;5536;49.602;10.980;2023-03-01T11:00:23;6.50;99.90
10968;DHT22;5536;49.602;10.980;2023-03-01T11:03:02;6.80;99.90
10968;DHT22;5536;49.602;10.980;2023-03-01T11:05:31;6.90;99.90
10968;DHT22;5536;49.602;10.980;2023-03-01T11:08:00;7.20;99.90
10968;DHT22;5536;49.602;10.980;2023-03-01T11:10:30;7.30;99.90
10968;DHT22;5536;49.602;10.980;2023-03-01T11:13:08;7.30;99.90
10968;DHT22;5536;49.602;10.980;2023-03-01T11:15:36;7.50;99.90
10968;DHT22;5536;49.602;10.980;2023-03-01T11:18:03;7.70;99.90
10968;DHT22;5536;49.602;10.980;2023-03-01T11:20:34;7.80;99.90
10968;DHT22;5536;49.602;10.980;2023-03-01T11:23:04;7.90;99.90
10968;DHT22;5536;49.602;10.980;2023-03-01T11:25:36;8.00;99.90
10968;DHT22;5536;49.602;10.980;2023-03-01T11:28:06;8.20;99.90
10968;DHT22;5536;49.602;10.980;2023-03-01T11:30:51;8.50;99.90
10968;DHT22;5536;49.602;10.980;2023-03-01T11:33:35;8.60;99.90
10968;DHT22;5536;49.602;10.980;2023-03-01T11:36:28;8.70;99.90
10968;DHT22;5536;49.602;10.980;2023-03-01T11:39:02;9.00;99.90
10968;DHT22;5536;49.602;10.980;2023-03-01T11:41:33;9.50;99.90
10968;DHT22;5536;49.602;10.980;2023-03-01T11:44:11;9.60;99.90
10968;DHT22;5536;49.602;10.980;2023-03-01T11:46:52;9.90;99.90
10968;DHT22;5536;49.602;10.980;2023-03-01T11:52:33;9.70;99.90
10968;DHT22;5536;49.602;10.980;2023-03-01T11:55:17;9.80;99.90
10968;DHT22;5536;49.602;10.980;2023-03-01T11:58:05;10.10;99.90
10968;DHT22;5536;49.602;10.980;2023-03-01T12:00:52;10.60;99.90
10968;DHT22;5536;49.602;10.980;2023-03-01T12:03:41;11.00;99.90
10968;DHT22;5536;49.602;10.980;2023-03-01T12:06:38;11.20;99.90
10968;DHT22;5536;49.602;10.980;2023-03-01T12:09:41;11.40;99.90
10968;DHT22;5536;49.602;10.980;2023-03-01T12:12:27;11.30;99.90
10968;DHT22;5536;49.602;10.980;2023-03-01T12:18:09;10.90;99.90
10968;DHT22;5536;49.602;10.980;2023-03-01T12:20:46;11.40;99.90
10968;DHT22;5536;49.602;10.980;2023-03-01T12:23:54;11.50;99.90
10968;DHT22;5536;49.602;10.980;2023-03-01T12:26:47;11.90;99.90
10968;DHT22;5536;49.602;10.980;2023-03-01T12:29:38;11.60;99.90
10968;DHT22;5536;49.602;10.980;2023-03-01T12:32:18;11.70;99.90
10968;DHT22;5536;49.602;10.980;2023-03-01T12:35:06;11.70;99.90
10968;DHT22;5536;49.602;10.980;2023-03-01T12:37:51;12.20;99.90
10968;DHT22;5536;49.602;10.980;2023-03-01T12:40:45;12.50;99.90
10968;DHT22;5536;49.602;10.980;2023-03-01T12:43:27;12.60;99.90
10968;DHT22;5536;49.602;10.980;2023-03-01T12:46:17;12.40;99.90
10968;DHT22;5536;49.602;10.980;2023-03-01T12:49:08;12.40;99.90
10968;DHT22;5536;49.602;10.980;2023-03-01T12:51:54;12.40;99.90
10968;DHT22;5536;49.602;10.980;2023-03-01T12:54:33;12.40;99.90
10968;DHT22;5536;49.602;10.980;2023-03-01T12:57:08;12.50;99.90
10968;DHT22;5536;49.602;10.980;2023-03-01T13:00:09;12.90;99.90
10968;DHT22;5536;49.602;10.980;2023-03-01T13:02:44;12.70;99.90
10968;DHT22;5536;49.602;10.980;2023-03-01T13:05:36;12.80;99.90
10968;DHT22;5536;49.602;10.980;2023-03-01T13:08:16;13.10;99.90
10968;DHT22;5536;49.602;10.980;2023-03-01T13:10:50;13.00;99.90
10968;DHT22;5536;49.602;10.980;2023-03-01T13:13:32;13.10;99.90
10968;DHT22;5536;49.602;10.980;2023-03-01T13:22:34;14.10;99.90
10968;DHT22;5536;49.602;10.980;2023-03-01T13:25:12;14.10;99.90
10968;DHT22;5536;49.602;10.980;2023-03-01T13:27:41;14.00;99.90
10968;DHT22;5536;49.602;10.980;2023-03-01T13:30:38;13.80;99.90
10968;DHT22;5536;49.602;10.980;2023-03-01T13:36:07;14.00;99.90
10968;DHT22;5536;49.602;10.980;2023-03-01T13:38:46;13.70;99.90
10968;DHT22;5536;49.602;10.980;2023-03-01T13:41:14;13.90;99.90
10968;DHT22;5536;49.602;10.980;2023-03-01T13:43:45;14.20;99.90
10968;DHT22;5536;49.602;10.980;2023-03-01T13:46:20;14.00;99.90
10968;DHT22;5536;49.602;10.980;2023-03-01T13:48:57;14.00;99.90
10968;DHT22;5536;49.602;10.980;2023-03-01T13:51:33;13.80;99.90
10968;DHT22;5536;49.602;10.980;2023-03-01T13:54:20;13.80;99.90
10968;DHT22;5536;49.602;10.980;2023-03-01T13:56:51;14.00;99.90
10968;DHT22;5536;49.602;10.980;2023-03-01T13:59:28;13.80;99.90
10968;DHT22;5536;49.602;10.980;2023-03-01T14:02:12;13.90;99.90
10968;DHT22;5536;49.602;10.980;2023-03-01T14:05:03;13.50;99.90
10968;DHT22;5536;49.602;10.980;2023-03-01T14:07:54;12.70;99.90
10968;DHT22;5536;49.602;10.980;2023-03-01T14:13:54;10.60;99.90
10968;DHT22;5536;49.602;10.980;2023-03-01T14:16:43;9.80;99.90
10968;DHT22;5536;49.602;10.980;2023-03-01T14:19:21;9.50;99.90
10968;DHT22;5536;49.602;10.980;2023-03-01T14:22:18;9.40;99.90
10968;DHT22;5536;49.602;10.980;2023-03-01T14:25:02;9.30;99.90
10968;DHT22;5536;49.602;10.980;2023-03-01T14:27:38;9.30;99.90
10968;DHT22;5536;49.602;10.980;2023-03-01T14:30:23;9.20;99.90
10968;DHT22;5536;49.602;10.980;2023-03-01T14:32:56;9.10;99.90
10968;DHT22;5536;49.602;10.980;2023-03-01T14:35:40;9.10;99.90
10968;DHT22;5536;49.602;10.980;2023-03-01T14:38:21;9.00;99.90
10968;DHT22;5536;49.602;10.980;2023-03-01T14:41:18;9.00;99.90
10968;DHT22;5536;49.602;10.980;2023-03-01T14:44:06;9.00;99.90
10968;DHT22;5536;49.602;10.980;2023-03-01T14:47:02;8.90;99.90
10968;DHT22;5536;49.602;10.980;2023-03-01T14:49:33;8.90;99.90
10968;DHT22;5536;49.602;10.980;2023-03-01T14:52:04;8.90;99.90
10968;DHT22;5536;49.602;10.980;2023-03-01T14:54:39;8.80;99.90
10968;DHT22;5536;49.602;10.980;2023-03-01T14:57:25;8.90;99.90
10968;DHT22;5536;49.602;10.980;2023-03-01T15:03:08;8.80;99.90
10968;DHT22;5536;49.602;10.980;2023-03-01T15:05:43;8.70;99.90
10968;DHT22;5536;49.602;10.980;2023-03-01T15:08:24;8.70;99.90
10968;DHT22;5536;49.602;10.980;2023-03-01T15:11:05;8.70;99.90
10968;DHT22;5536;49.602;10.980;2023-03-01T15:13:35;8.70;99.90
10968;DHT22;5536;49.602;10.980;2023-03-01T15:16:21;8.70;99.90
10968;DHT22;5536;49.602;10.980;2023-03-01T15:18:54;8.60;99.90
10968;DHT22;5536;49.602;10.980;2023-03-01T15:21:37;8.60;99.90
10968;DHT22;5536;49.602;10.980;2023-03-01T15:24:25;8.50;99.90
10968;DHT22;5536;49.602;10.980;2023-03-01T15:27:15;8.50;99.90
10968;DHT22;5536;49.602;10.980;2023-03-01T15:29:59;8.50;99.90
10968;DHT22;5536;49.602;10.980;2023-03-01T15:32:37;8.50;99.90
10968;DHT22;5536;49.602;10.980;2023-03-01T15:35:40;8.40;99.90
10968;DHT22;5536;49.602;10.980;2023-03-01T15:38:29;8.40;99.90
10968;DHT22;5536;49.602;10.980;2023-03-01T15:40:58;8.40;99.90
10968;DHT22;5536;49.602;10.980;2023-03-01T15:43:38;8.40;99.90
10968;DHT22;5536;49.602;10.980;2023-03-01T15:46:27;8.30;99.90
10968;DHT22;5536;49.602;10.980;2023-03-01T15:48:58;8.20;99.90
10968;DHT22;5536;49.602;10.980;2023-03-01T15:51:46;8.20;99.90
10968;DHT22;5536;49.602;10.980;2023-03-01T15:54:18;8.10;99.90
10968;DHT22;5536;49.602;10.980;2023-03-01T15:56:50;8.10;99.90
10968;DHT22;5536;49.602;10.980;2023-03-01T15:59:22;8.00;99.90
10968;DHT22;5536;49.602;10.980;2023-03-01T16:01:54;8.00;99.90
10968;DHT22;5536;49.602;10.980;2023-03-01T16:04:22;7.90;99.90
10968;DHT22;5536;49.602;10.980;2023-03-01T16:06:53;7.90;99.90
10968;DHT22;5536;49.602;10.980;2023-03-01T16:09:22;7.90;99.90
10968;DHT22;5536;49.602;10.980;2023-03-01T16:11:52;7.80;99.90
10968;DHT22;5536;49.602;10.980;2023-03-01T16:14:33;7.70;99.90
10968;DHT22;5536;49.602;10.980;2023-03-01T16:17:00;7.70;99.90
10968;DHT22;5536;49.602;10.980;2023-03-01T16:19:29;7.60;99.90
10968;DHT22;5536;49.602;10.980;2023-03-01T16:22:01;7.50;99.90
10968;DHT22;5536;49.602;10.980;2023-03-01T16:24:28;7.50;99.90
10968;DHT22;5536;49.602;10.980;2023-03-01T16:26:59;7.40;99.90
10968;DHT22;5536;49.602;10.980;2023-03-01T16:29:27;7.30;99.90
10968;DHT22;5536;49.602;10.980;2023-03-01T16:31:56;7.30;99.90